sensor_id;sensor_type;location;lat;lon;timestamp;P1;durP1;ratioP1;P2;durP2;ratioP2
40044;SDS011;25735;48.122;11.422;2023-03-01T00:01:31;22.93;;;15.77;;
40044;SDS011;25735;48.122;11.422;2023-03-01T00:03:57;22.08;;;15.38;;
40044;SDS011;25735;48.122;11.422;2023-03-01T00:06:23;22.00;;;16.02;;
40044;SDS011;25735;48.122;11.422;2023-03-01T00:08:49;21.38;;;16.20;;
40044;SDS011;25735;48.122;11.422;2023-03-01T00:13:46;22.40;;;16.52;;
40044;SDS011;25735;48.122;11.422;2023-03-01T00:16:12;23.67;;;16.98;;
40044;SDS011;25735;48.122;11.422;2023-03-01T00:18:38;23.35;;;16.90;;
40044;SDS011;25735;48.122;11.422;2023-03-01T00:21:04;23.42;;;16.45;;
40044;SDS011;25735;48.122;11.422;2023-03-01T00:23:29;26.20;;;16.55;;
40044;SDS011;25735;48.122;11.422;2023-03-01T00:25:54;23.02;;;16.38;;
40044;SDS011;25735;48.122;11.422;2023-03-01T00:28:19;22.90;;;15.82;;
40044;SDS011;25735;48.122;11.422;2023-03-01T00:30:45;27.02;;;17.02;;
40044;SDS011;25735;48.122;11.422;2023-03-01T00:33:10;22.50;;;15.50;;
40044;SDS011;25735;48.122;11.422;2023-03-01T00:35:35;20.00;;;13.83;;
40044;SDS011;25735;48.122;11.422;2023-03-01T00:38:01;23.88;;;15.57;;
40044;SDS011;25735;48.122;11.422;2023-03-01T00:40:27;20.65;;;15.23;;
40044;SDS011;25735;48.122;11.422;2023-03-01T00:42:52;22.65;;;16.67;;
40044;SDS011;25735;48.122;11.422;2023-03-01T00:45:18;22.73;;;15.43;;
40044;SDS011;25735;48.122;11.422;2023-03-01T00:47:43;24.73;;;16.73;;
40044;SDS011;25735;48.122;11.422;2023-03-01T00:50:08;22.52;;;16.48;;
40044;SDS011;25735;48.122;11.422;2023-03-01T00:52:34;21.20;;;15.35;;
40044;SDS011;25735;48.122;11.422;2023-03-01T00:54:59;22.38;;;14.73;;
40044;SDS011;25735;48.122;11.422;2023-03-01T00:57:24;22.47;;;14.70;;
40044;SDS011;25735;48.122;11.422;2023-03-01T00:59:49;26.17;;;17.27;;
40044;SDS011;25735;48.122;11.422;2023-03-01T01:02:14;23.52;;;16.02;;
40044;SDS011;25735;48.122;11.422;2023-03-01T01:04:40;20.10;;;13.65;;
40044;SDS011;25735;48.122;11.422;2023-03-01T01:07:05;19.65;;;14.57;;
40044;SDS011;25735;48.122;11.422;2023-03-01T01:09:30;24.30;;;16.97;;
40044;SDS011;25735;48.122;11.422;2023-03-01T01:11:55;22.10;;;14.55;;
40044;SDS011;25735;48.122;11.422;2023-03-01T01:14:21;26.80;;;15.32;;
40044;SDS011;25735;48.122;11.422;2023-03-01T01:16:46;24.40;;;15.68;;
40044;SDS011;25735;48.122;11.422;2023-03-01T01:19:11;23.92;;;15.85;;
40044;SDS011;25735;48.122;11.422;2023-03-01T01:21:36;22.60;;;14.75;;
40044;SDS011;25735;48.122;11.422;2023-03-01T01:24:03;20.70;;;14.95;;
40044;SDS011;25735;48.122;11.422;2023-03-01T01:26:29;25.88;;;17.48;;
40044;SDS011;25735;48.122;11.422;2023-03-01T01:28:55;25.90;;;16.70;;
40044;SDS011;25735;48.122;11.422;2023-03-01T01:31:20;26.23;;;17.08;;
40044;SDS011;25735;48.122;11.422;2023-03-01T01:33:48;23.17;;;16.20;;
40044;SDS011;25735;48.122;11.422;2023-03-01T01:36:13;24.13;;;16.05;;
40044;SDS011;25735;48.122;11.422;2023-03-01T01:38:39;26.23;;;17.00;;
40044;SDS011;25735;48.122;11.422;2023-03-01T01:41:04;21.17;;;14.60;;
40044;SDS011;25735;48.122;11.422;2023-03-01T01:43:31;21.27;;;14.73;;
40044;SDS011;25735;48.122;11.422;2023-03-01T01:46:01;22.88;;;15.73;;
40044;SDS011;25735;48.122;11.422;2023-03-01T01:49:02;23.98;;;16.55;;
40044;SDS011;25735;48.122;11.422;2023-03-01T01:51:20;22.33;;;16.00;;
40044;SDS011;25735;48.122;11.422;2023-03-01T01:53:48;22.88;;;15.88;;
40044;SDS011;25735;48.122;11.422;2023-03-01T01:56:14;23.92;;;16.50;;
40044;SDS011;25735;48.122;11.422;2023-03-01T01:58:40;25.00;;;16.38;;
40044;SDS011;25735;48.122;11.422;2023-03-01T02:01:08;22.50;;;15.80;;
40044;SDS011;25735;48.122;11.422;2023-03-01T02:03:33;22.60;;;15.37;;
40044;SDS011;25735;48.122;11.422;2023-03-01T02:08:46;22.30;;;16.05;;
40044;SDS011;25735;48.122;11.422;2023-03-01T02:11:13;26.98;;;17.27;;
40044;SDS011;25735;48.122;11.422;2023-03-01T02:13:39;24.25;;;15.15;;
40044;SDS011;25735;48.122;11.422;2023-03-01T02:16:08;21.15;;;14.38;;
40044;SDS011;25735;48.122;11.422;2023-03-01T02:18:33;21.40;;;16.40;;
40044;SDS011;25735;48.122;11.422;2023-03-01T02:21:02;26.27;;;17.40;;
40044;SDS011;25735;48.122;11.422;2023-03-01T02:23:30;26.33;;;17.13;;
40044;SDS011;25735;48.122;11.422;2023-03-01T02:26:11;23.50;;;16.25;;
40044;SDS011;25735;48.122;11.422;2023-03-01T02:28:40;23.90;;;17.00;;
40044;SDS011;25735;48.122;11.422;2023-03-01T02:31:06;22.10;;;16.08;;
40044;SDS011;25735;48.122;11.422;2023-03-01T02:33:51;24.77;;;16.35;;
40044;SDS011;25735;48.122;11.422;2023-03-01T02:36:24;25.23;;;15.45;;
40044;SDS011;25735;48.122;11.422;2023-03-01T02:38:51;22.55;;;15.60;;
40044;SDS011;25735;48.122;11.422;2023-03-01T02:41:19;28.05;;;16.60;;
40044;SDS011;25735;48.122;11.422;2023-03-01T02:43:45;25.35;;;17.10;;
40044;SDS011;25735;48.122;11.422;2023-03-01T02:46:15;26.73;;;16.00;;
40044;SDS011;25735;48.122;11.422;2023-03-01T02:48:41;25.15;;;17.50;;
40044;SDS011;25735;48.122;11.422;2023-03-01T02:51:11;22.35;;;15.05;;
40044;SDS011;25735;48.122;11.422;2023-03-01T02:53:56;25.60;;;16.83;;
40044;SDS011;25735;48.122;11.422;2023-03-01T02:56:24;23.95;;;15.38;;
40044;SDS011;25735;48.122;11.422;2023-03-01T02:58:49;25.02;;;15.63;;
40044;SDS011;25735;48.122;11.422;2023-03-01T03:01:17;23.25;;;14.90;;
40044;SDS011;25735;48.122;11.422;2023-03-01T03:03:42;24.23;;;16.45;;
40044;SDS011;25735;48.122;11.422;2023-03-01T03:06:09;22.50;;;15.70;;
40044;SDS011;25735;48.122;11.422;2023-03-01T03:08:34;22.25;;;14.93;;
40044;SDS011;25735;48.122;11.422;2023-03-01T03:10:59;24.00;;;14.98;;
40044;SDS011;25735;48.122;11.422;2023-03-01T03:13:24;20.93;;;14.83;;
40044;SDS011;25735;48.122;11.422;2023-03-01T03:15:54;22.63;;;15.80;;
40044;SDS011;25735;48.122;11.422;2023-03-01T03:18:19;20.85;;;14.75;;
40044;SDS011;25735;48.122;11.422;2023-03-01T03:20:44;23.00;;;16.10;;
40044;SDS011;25735;48.122;11.422;2023-03-01T03:23:10;21.83;;;15.73;;
40044;SDS011;25735;48.122;11.422;2023-03-01T03:25:35;24.40;;;17.30;;
40044;SDS011;25735;48.122;11.422;2023-03-01T03:28:02;21.90;;;14.98;;
40044;SDS011;25735;48.122;11.422;2023-03-01T03:32:59;21.92;;;15.32;;
40044;SDS011;25735;48.122;11.422;2023-03-01T03:35:25;21.03;;;15.10;;
40044;SDS011;25735;48.122;11.422;2023-03-01T03:37:51;22.83;;;15.98;;
40044;SDS011;25735;48.122;11.422;2023-03-01T03:40:31;24.90;;;16.63;;
40044;SDS011;25735;48.122;11.422;2023-03-01T03:42:57;21.98;;;16.13;;
40044;SDS011;25735;48.122;11.422;2023-03-01T03:45:22;24.48;;;16.02;;
40044;SDS011;25735;48.122;11.422;2023-03-01T03:47:47;21.57;;;14.90;;
40044;SDS011;25735;48.122;11.422;2023-03-01T03:50:13;23.08;;;16.67;;
40044;SDS011;25735;48.122;11.422;2023-03-01T03:52:38;24.50;;;17.00;;
40044;SDS011;25735;48.122;11.422;2023-03-01T03:55:04;22.65;;;16.05;;
40044;SDS011;25735;48.122;11.422;2023-03-01T04:00:00;22.35;;;15.55;;
40044;SDS011;25735;48.122;11.422;2023-03-01T04:02:26;25.58;;;15.85;;
40044;SDS011;25735;48.122;11.422;2023-03-01T04:04:51;23.98;;;16.15;;
40044;SDS011;25735;48.122;11.422;2023-03-01T04:07:16;24.63;;;17.58;;
40044;SDS011;25735;48.122;11.422;2023-03-01T04:09:42;27.23;;;18.30;;
40044;SDS011;25735;48.122;11.422;2023-03-01T04:12:07;23.30;;;16.35;;
40044;SDS011;25735;48.122;11.422;2023-03-01T04:14:32;28.30;;;17.77;;
40044;SDS011;25735;48.122;11.422;2023-03-01T04:16:58;23.63;;;16.48;;
40044;SDS011;25735;48.122;11.422;2023-03-01T04:19:23;26.15;;;16.67;;
40044;SDS011;25735;48.122;11.422;2023-03-01T04:21:48;23.87;;;15.53;;
40044;SDS011;25735;48.122;11.422;2023-03-01T04:24:13;25.80;;;16.23;;
40044;SDS011;25735;48.122;11.422;2023-03-01T04:26:38;24.10;;;17.23;;
40044;SDS011;25735;48.122;11.422;2023-03-01T04:29:04;19.30;;;13.90;;
40044;SDS011;25735;48.122;11.422;2023-03-01T04:31:29;23.67;;;16.73;;
40044;SDS011;25735;48.122;11.422;2023-03-01T04:33:54;22.47;;;16.43;;
40044;SDS011;25735;48.122;11.422;2023-03-01T04:36:24;24.70;;;17.25;;
40044;SDS011;25735;48.122;11.422;2023-03-01T04:38:49;22.35;;;15.20;;
40044;SDS011;25735;48.122;11.422;2023-03-01T04:41:16;26.02;;;17.48;;
40044;SDS011;25735;48.122;11.422;2023-03-01T04:43:41;25.58;;;16.08;;
40044;SDS011;25735;48.122;11.422;2023-03-01T04:46:08;26.55;;;16.23;;
40044;SDS011;25735;48.122;11.422;2023-03-01T04:48:35;25.05;;;15.60;;
40044;SDS011;25735;48.122;11.422;2023-03-01T04:51:00;23.70;;;16.02;;
40044;SDS011;25735;48.122;11.422;2023-03-01T04:53:25;25.20;;;15.53;;
40044;SDS011;25735;48.122;11.422;2023-03-01T04:55:51;25.95;;;17.00;;
40044;SDS011;25735;48.122;11.422;2023-03-01T04:58:16;24.08;;;16.35;;
40044;SDS011;25735;48.122;11.422;2023-03-01T05:00:41;25.45;;;16.52;;
40044;SDS011;25735;48.122;11.422;2023-03-01T05:03:07;25.67;;;17.73;;
40044;SDS011;25735;48.122;11.422;2023-03-01T05:05:33;27.08;;;17.15;;
40044;SDS011;25735;48.122;11.422;2023-03-01T05:08:00;24.85;;;18.02;;
40044;SDS011;25735;48.122;11.422;2023-03-01T05:10:26;27.33;;;17.75;;
40044;SDS011;25735;48.122;11.422;2023-03-01T05:12:51;23.65;;;17.02;;
40044;SDS011;25735;48.122;11.422;2023-03-01T05:15:19;29.02;;;17.80;;
40044;SDS011;25735;48.122;11.422;2023-03-01T05:17:46;24.00;;;16.65;;
40044;SDS011;25735;48.122;11.422;2023-03-01T05:20:11;21.77;;;13.85;;
40044;SDS011;25735;48.122;11.422;2023-03-01T05:22:37;23.92;;;16.92;;
40044;SDS011;25735;48.122;11.422;2023-03-01T05:25:03;24.30;;;14.95;;
40044;SDS011;25735;48.122;11.422;2023-03-01T05:27:28;21.70;;;15.93;;
40044;SDS011;25735;48.122;11.422;2023-03-01T05:29:54;22.80;;;14.13;;
40044;SDS011;25735;48.122;11.422;2023-03-01T05:32:19;23.98;;;16.70;;
40044;SDS011;25735;48.122;11.422;2023-03-01T05:34:44;24.20;;;17.38;;
40044;SDS011;25735;48.122;11.422;2023-03-01T05:37:11;25.77;;;18.45;;
40044;SDS011;25735;48.122;11.422;2023-03-01T05:39:36;28.57;;;17.90;;
40044;SDS011;25735;48.122;11.422;2023-03-01T05:42:01;21.27;;;14.20;;
40044;SDS011;25735;48.122;11.422;2023-03-01T05:44:27;27.53;;;18.80;;
40044;SDS011;25735;48.122;11.422;2023-03-01T05:46:52;24.80;;;15.95;;
40044;SDS011;25735;48.122;11.422;2023-03-01T05:49:18;22.50;;;16.77;;
40044;SDS011;25735;48.122;11.422;2023-03-01T05:51:47;23.67;;;16.95;;
40044;SDS011;25735;48.122;11.422;2023-03-01T05:54:12;28.95;;;17.63;;
40044;SDS011;25735;48.122;11.422;2023-03-01T05:56:37;31.23;;;19.13;;
40044;SDS011;25735;48.122;11.422;2023-03-01T05:59:03;26.58;;;15.68;;
40044;SDS011;25735;48.122;11.422;2023-03-01T06:01:28;26.23;;;17.08;;
40044;SDS011;25735;48.122;11.422;2023-03-01T06:03:54;27.77;;;17.15;;
40044;SDS011;25735;48.122;11.422;2023-03-01T06:06:19;21.58;;;15.68;;
40044;SDS011;25735;48.122;11.422;2023-03-01T06:08:45;24.87;;;16.00;;
40044;SDS011;25735;48.122;11.422;2023-03-01T06:11:10;24.20;;;16.13;;
40044;SDS011;25735;48.122;11.422;2023-03-01T06:13:35;25.47;;;16.90;;
40044;SDS011;25735;48.122;11.422;2023-03-01T06:16:01;27.38;;;17.75;;
40044;SDS011;25735;48.122;11.422;2023-03-01T06:18:28;23.77;;;15.95;;
40044;SDS011;25735;48.122;11.422;2023-03-01T06:20:54;26.95;;;16.70;;
40044;SDS011;25735;48.122;11.422;2023-03-01T06:23:19;25.38;;;15.65;;
40044;SDS011;25735;48.122;11.422;2023-03-01T06:25:44;25.43;;;16.00;;
40044;SDS011;25735;48.122;11.422;2023-03-01T06:28:09;26.87;;;17.90;;
40044;SDS011;25735;48.122;11.422;2023-03-01T06:30:35;27.52;;;17.38;;
40044;SDS011;25735;48.122;11.422;2023-03-01T06:33:00;26.25;;;17.17;;
40044;SDS011;25735;48.122;11.422;2023-03-01T06:35:28;22.10;;;15.25;;
40044;SDS011;25735;48.122;11.422;2023-03-01T06:37:54;26.13;;;17.02;;
40044;SDS011;25735;48.122;11.422;2023-03-01T06:40:20;26.02;;;17.17;;
40044;SDS011;25735;48.122;11.422;2023-03-01T06:42:47;26.77;;;16.73;;
40044;SDS011;25735;48.122;11.422;2023-03-01T06:45:14;29.42;;;16.58;;
40044;SDS011;25735;48.122;11.422;2023-03-01T06:47:39;25.70;;;17.70;;
40044;SDS011;25735;48.122;11.422;2023-03-01T06:50:04;25.80;;;17.57;;
40044;SDS011;25735;48.122;11.422;2023-03-01T06:52:29;27.75;;;15.90;;
40044;SDS011;25735;48.122;11.422;2023-03-01T06:54:55;27.67;;;16.27;;
40044;SDS011;25735;48.122;11.422;2023-03-01T06:57:20;24.03;;;16.43;;
40044;SDS011;25735;48.122;11.422;2023-03-01T06:59:46;26.27;;;17.73;;
40044;SDS011;25735;48.122;11.422;2023-03-01T07:02:11;23.17;;;16.48;;
40044;SDS011;25735;48.122;11.422;2023-03-01T07:04:37;26.38;;;17.52;;
40044;SDS011;25735;48.122;11.422;2023-03-01T07:07:02;25.67;;;16.90;;
40044;SDS011;25735;48.122;11.422;2023-03-01T07:09:28;26.48;;;16.63;;
40044;SDS011;25735;48.122;11.422;2023-03-01T07:11:53;27.35;;;16.90;;
40044;SDS011;25735;48.122;11.422;2023-03-01T07:14:18;24.75;;;15.68;;
40044;SDS011;25735;48.122;11.422;2023-03-01T07:16:44;26.52;;;17.55;;
40044;SDS011;25735;48.122;11.422;2023-03-01T07:19:09;27.15;;;16.63;;
40044;SDS011;25735;48.122;11.422;2023-03-01T07:21:35;24.80;;;17.00;;
40044;SDS011;25735;48.122;11.422;2023-03-01T07:24:00;24.30;;;15.82;;
40044;SDS011;25735;48.122;11.422;2023-03-01T07:26:25;23.38;;;16.05;;
40044;SDS011;25735;48.122;11.422;2023-03-01T07:28:50;23.73;;;16.20;;
40044;SDS011;25735;48.122;11.422;2023-03-01T07:31:15;24.70;;;17.83;;
40044;SDS011;25735;48.122;11.422;2023-03-01T07:33:40;24.30;;;16.43;;
40044;SDS011;25735;48.122;11.422;2023-03-01T07:36:06;26.20;;;17.88;;
40044;SDS011;25735;48.122;11.422;2023-03-01T07:38:31;24.88;;;17.15;;
40044;SDS011;25735;48.122;11.422;2023-03-01T07:41:00;25.70;;;16.95;;
40044;SDS011;25735;48.122;11.422;2023-03-01T07:43:26;22.20;;;14.43;;
40044;SDS011;25735;48.122;11.422;2023-03-01T07:45:51;26.13;;;16.42;;
40044;SDS011;25735;48.122;11.422;2023-03-01T07:48:16;25.33;;;16.45;;
40044;SDS011;25735;48.122;11.422;2023-03-01T07:50:42;27.05;;;16.60;;
40044;SDS011;25735;48.122;11.422;2023-03-01T07:53:07;26.50;;;15.93;;
40044;SDS011;25735;48.122;11.422;2023-03-01T07:55:33;26.48;;;16.52;;
40044;SDS011;25735;48.122;11.422;2023-03-01T07:57:58;24.97;;;16.27;;
40044;SDS011;25735;48.122;11.422;2023-03-01T08:00:23;30.42;;;17.63;;
40044;SDS011;25735;48.122;11.422;2023-03-01T08:02:48;26.10;;;16.80;;
40044;SDS011;25735;48.122;11.422;2023-03-01T08:05:13;22.48;;;15.73;;
40044;SDS011;25735;48.122;11.422;2023-03-01T08:07:38;25.27;;;17.38;;
40044;SDS011;25735;48.122;11.422;2023-03-01T08:10:04;26.05;;;17.80;;
40044;SDS011;25735;48.122;11.422;2023-03-01T08:12:29;23.83;;;16.55;;
40044;SDS011;25735;48.122;11.422;2023-03-01T08:14:54;25.90;;;16.38;;
40044;SDS011;25735;48.122;11.422;2023-03-01T08:17:20;25.55;;;16.60;;
40044;SDS011;25735;48.122;11.422;2023-03-01T08:19:45;26.40;;;16.23;;
40044;SDS011;25735;48.122;11.422;2023-03-01T08:22:10;23.55;;;16.02;;
40044;SDS011;25735;48.122;11.422;2023-03-01T08:24:35;25.13;;;15.33;;
40044;SDS011;25735;48.122;11.422;2023-03-01T08:27:01;28.23;;;17.50;;
40044;SDS011;25735;48.122;11.422;2023-03-01T08:29:27;24.65;;;16.92;;
40044;SDS011;25735;48.122;11.422;2023-03-01T08:31:53;26.02;;;16.00;;
40044;SDS011;25735;48.122;11.422;2023-03-01T08:34:18;28.15;;;18.25;;
40044;SDS011;25735;48.122;11.422;2023-03-01T08:36:44;26.17;;;17.57;;
40044;SDS011;25735;48.122;11.422;2023-03-01T08:39:10;28.20;;;16.90;;
40044;SDS011;25735;48.122;11.422;2023-03-01T08:41:36;25.17;;;16.40;;
40044;SDS011;25735;48.122;11.422;2023-03-01T08:44:02;24.00;;;16.05;;
40044;SDS011;25735;48.122;11.422;2023-03-01T08:46:27;26.30;;;16.08;;
40044;SDS011;25735;48.122;11.422;2023-03-01T08:48:53;24.77;;;16.52;;
40044;SDS011;25735;48.122;11.422;2023-03-01T08:51:18;27.25;;;15.73;;
40044;SDS011;25735;48.122;11.422;2023-03-01T08:53:44;26.63;;;16.25;;
40044;SDS011;25735;48.122;11.422;2023-03-01T08:56:09;23.70;;;16.08;;
40044;SDS011;25735;48.122;11.422;2023-03-01T08:58:34;25.70;;;16.55;;
40044;SDS011;25735;48.122;11.422;2023-03-01T09:01:00;26.63;;;16.20;;
40044;SDS011;25735;48.122;11.422;2023-03-01T09:03:25;25.08;;;16.30;;
40044;SDS011;25735;48.122;11.422;2023-03-01T09:05:51;27.27;;;17.50;;
40044;SDS011;25735;48.122;11.422;2023-03-01T09:08:17;22.92;;;17.02;;
40044;SDS011;25735;48.122;11.422;2023-03-01T09:10:42;26.02;;;17.08;;
40044;SDS011;25735;48.122;11.422;2023-03-01T09:13:07;23.43;;;16.17;;
40044;SDS011;25735;48.122;11.422;2023-03-01T09:15:33;25.58;;;17.00;;
40044;SDS011;25735;48.122;11.422;2023-03-01T09:17:58;27.20;;;18.27;;
40044;SDS011;25735;48.122;11.422;2023-03-01T09:20:24;23.63;;;16.55;;
40044;SDS011;25735;48.122;11.422;2023-03-01T09:22:49;25.37;;;16.73;;
40044;SDS011;25735;48.122;11.422;2023-03-01T09:25:14;25.38;;;17.23;;
40044;SDS011;25735;48.122;11.422;2023-03-01T09:27:39;24.33;;;17.48;;
40044;SDS011;25735;48.122;11.422;2023-03-01T09:30:04;25.38;;;16.15;;
40044;SDS011;25735;48.122;11.422;2023-03-01T09:32:30;27.77;;;16.35;;
40044;SDS011;25735;48.122;11.422;2023-03-01T09:34:56;27.10;;;17.70;;
40044;SDS011;25735;48.122;11.422;2023-03-01T09:37:29;26.35;;;18.48;;
40044;SDS011;25735;48.122;11.422;2023-03-01T09:39:54;23.25;;;16.05;;
40044;SDS011;25735;48.122;11.422;2023-03-01T09:42:20;24.33;;;16.15;;
40044;SDS011;25735;48.122;11.422;2023-03-01T09:44:47;29.30;;;17.15;;
40044;SDS011;25735;48.122;11.422;2023-03-01T09:47:17;26.55;;;17.02;;
40044;SDS011;25735;48.122;11.422;2023-03-01T09:49:43;27.15;;;17.42;;
40044;SDS011;25735;48.122;11.422;2023-03-01T09:52:19;26.35;;;16.83;;
40044;SDS011;25735;48.122;11.422;2023-03-01T09:54:46;23.88;;;17.17;;
40044;SDS011;25735;48.122;11.422;2023-03-01T09:57:17;28.92;;;17.67;;
40044;SDS011;25735;48.122;11.422;2023-03-01T09:59:55;24.85;;;16.80;;
40044;SDS011;25735;48.122;11.422;2023-03-01T10:02:31;26.05;;;17.17;;
40044;SDS011;25735;48.122;11.422;2023-03-01T10:05:05;28.65;;;19.30;;
40044;SDS011;25735;48.122;11.422;2023-03-01T10:10:23;26.70;;;16.23;;
40044;SDS011;25735;48.122;11.422;2023-03-01T10:12:51;23.02;;;15.38;;
40044;SDS011;25735;48.122;11.422;2023-03-01T10:15:18;23.92;;;16.40;;
40044;SDS011;25735;48.122;11.422;2023-03-01T10:17:57;23.40;;;15.10;;
40044;SDS011;25735;48.122;11.422;2023-03-01T10:20:25;27.27;;;17.80;;
40044;SDS011;25735;48.122;11.422;2023-03-01T10:22:51;25.77;;;16.10;;
40044;SDS011;25735;48.122;11.422;2023-03-01T10:28:06;24.58;;;15.82;;
40044;SDS011;25735;48.122;11.422;2023-03-01T10:30:38;26.38;;;17.70;;
40044;SDS011;25735;48.122;11.422;2023-03-01T10:33:14;27.73;;;17.27;;
40044;SDS011;25735;48.122;11.422;2023-03-01T10:35:40;27.77;;;17.58;;
40044;SDS011;25735;48.122;11.422;2023-03-01T10:38:12;25.52;;;16.52;;
40044;SDS011;25735;48.122;11.422;2023-03-01T10:43:19;23.23;;;16.17;;
40044;SDS011;25735;48.122;11.422;2023-03-01T10:45:44;23.83;;;16.77;;
40044;SDS011;25735;48.122;11.422;2023-03-01T10:48:19;23.42;;;16.85;;
40044;SDS011;25735;48.122;11.422;2023-03-01T10:50:50;23.90;;;16.33;;
40044;SDS011;25735;48.122;11.422;2023-03-01T10:53:24;29.00;;;17.02;;
40044;SDS011;25735;48.122;11.422;2023-03-01T10:58:22;21.23;;;14.07;;
40044;SDS011;25735;48.122;11.422;2023-03-01T11:01:49;22.80;;;15.60;;
40044;SDS011;25735;48.122;11.422;2023-03-01T11:03:42;23.27;;;16.15;;
40044;SDS011;25735;48.122;11.422;2023-03-01T11:08:42;27.60;;;19.00;;
40044;SDS011;25735;48.122;11.422;2023-03-01T11:11:19;26.17;;;16.77;;
40044;SDS011;25735;48.122;11.422;2023-03-01T11:13:47;26.75;;;17.55;;
40044;SDS011;25735;48.122;11.422;2023-03-01T11:16:14;25.85;;;17.05;;
40044;SDS011;25735;48.122;11.422;2023-03-01T11:18:39;23.75;;;16.98;;
40044;SDS011;25735;48.122;11.422;2023-03-01T11:21:04;23.45;;;16.35;;
40044;SDS011;25735;48.122;11.422;2023-03-01T11:23:30;25.63;;;16.70;;
40044;SDS011;25735;48.122;11.422;2023-03-01T11:26:00;24.33;;;17.33;;
40044;SDS011;25735;48.122;11.422;2023-03-01T11:28:27;24.70;;;16.65;;
40044;SDS011;25735;48.122;11.422;2023-03-01T11:36:00;25.75;;;17.65;;
40044;SDS011;25735;48.122;11.422;2023-03-01T11:38:27;23.20;;;16.25;;
40044;SDS011;25735;48.122;11.422;2023-03-01T11:41:38;22.58;;;16.80;;
40044;SDS011;25735;48.122;11.422;2023-03-01T11:43:42;23.58;;;15.82;;
40044;SDS011;25735;48.122;11.422;2023-03-01T11:51:24;21.13;;;16.35;;
40044;SDS011;25735;48.122;11.422;2023-03-01T11:53:52;22.67;;;17.00;;
40044;SDS011;25735;48.122;11.422;2023-03-01T11:56:22;27.55;;;18.33;;
40044;SDS011;25735;48.122;11.422;2023-03-01T11:59:01;22.38;;;17.48;;
40044;SDS011;25735;48.122;11.422;2023-03-01T12:11:49;23.02;;;16.63;;
40044;SDS011;25735;48.122;11.422;2023-03-01T12:14:22;22.65;;;14.20;;
40044;SDS011;25735;48.122;11.422;2023-03-01T12:19:41;22.42;;;15.63;;
40044;SDS011;25735;48.122;11.422;2023-03-01T12:22:16;22.15;;;16.58;;
40044;SDS011;25735;48.122;11.422;2023-03-01T12:29:39;20.90;;;15.70;;
40044;SDS011;25735;48.122;11.422;2023-03-01T12:32:12;19.92;;;14.52;;
40044;SDS011;25735;48.122;11.422;2023-03-01T12:34:49;23.23;;;14.75;;
40044;SDS011;25735;48.122;11.422;2023-03-01T12:37:21;21.50;;;16.08;;
40044;SDS011;25735;48.122;11.422;2023-03-01T12:45:32;20.05;;;16.52;;
40044;SDS011;25735;48.122;11.422;2023-03-01T12:47:58;22.65;;;16.42;;
40044;SDS011;25735;48.122;11.422;2023-03-01T12:50:24;19.23;;;14.73;;
40044;SDS011;25735;48.122;11.422;2023-03-01T12:52:55;21.17;;;17.20;;
40044;SDS011;25735;48.122;11.422;2023-03-01T12:55:26;21.45;;;15.90;;
40044;SDS011;25735;48.122;11.422;2023-03-01T12:58:01;19.85;;;15.10;;
40044;SDS011;25735;48.122;11.422;2023-03-01T13:00:30;21.10;;;17.25;;
40044;SDS011;25735;48.122;11.422;2023-03-01T13:05:31;22.77;;;15.95;;
40044;SDS011;25735;48.122;11.422;2023-03-01T13:08:05;23.02;;;18.42;;
40044;SDS011;25735;48.122;11.422;2023-03-01T13:10:36;21.30;;;16.77;;
40044;SDS011;25735;48.122;11.422;2023-03-01T13:15:37;21.50;;;16.67;;
40044;SDS011;25735;48.122;11.422;2023-03-01T13:18:03;21.52;;;15.68;;
40044;SDS011;25735;48.122;11.422;2023-03-01T13:23:12;19.73;;;16.52;;
40044;SDS011;25735;48.122;11.422;2023-03-01T13:30:56;19.58;;;16.67;;
40044;SDS011;25735;48.122;11.422;2023-03-01T13:35:53;17.65;;;14.82;;
40044;SDS011;25735;48.122;11.422;2023-03-01T13:41:03;20.83;;;16.85;;
40044;SDS011;25735;48.122;11.422;2023-03-01T13:43:30;20.02;;;15.20;;
40044;SDS011;25735;48.122;11.422;2023-03-01T13:45:56;19.17;;;16.02;;
40044;SDS011;25735;48.122;11.422;2023-03-01T13:48:23;21.75;;;17.08;;
40044;SDS011;25735;48.122;11.422;2023-03-01T13:50:53;17.35;;;14.55;;
40044;SDS011;25735;48.122;11.422;2023-03-01T13:53:20;17.45;;;15.02;;
40044;SDS011;25735;48.122;11.422;2023-03-01T13:55:47;20.63;;;15.45;;
40044;SDS011;25735;48.122;11.422;2023-03-01T14:00:41;18.90;;;16.75;;
40044;SDS011;25735;48.122;11.422;2023-03-01T14:03:11;21.20;;;16.48;;
40044;SDS011;25735;48.122;11.422;2023-03-01T14:05:37;20.92;;;16.75;;
40044;SDS011;25735;48.122;11.422;2023-03-01T14:08:14;18.27;;;14.68;;
40044;SDS011;25735;48.122;11.422;2023-03-01T14:10:50;17.48;;;15.55;;
40044;SDS011;25735;48.122;11.422;2023-03-01T14:16:01;18.63;;;14.60;;
40044;SDS011;25735;48.122;11.422;2023-03-01T14:21:07;19.05;;;16.52;;
40044;SDS011;25735;48.122;11.422;2023-03-01T14:23:32;20.38;;;17.13;;
40044;SDS011;25735;48.122;11.422;2023-03-01T14:26:00;18.15;;;16.05;;
40044;SDS011;25735;48.122;11.422;2023-03-01T14:28:26;21.33;;;15.77;;
40044;SDS011;25735;48.122;11.422;2023-03-01T14:30:53;18.33;;;16.38;;
40044;SDS011;25735;48.122;11.422;2023-03-01T14:33:20;17.30;;;13.95;;
40044;SDS011;25735;48.122;11.422;2023-03-01T14:35:56;21.17;;;16.35;;
40044;SDS011;25735;48.122;11.422;2023-03-01T14:38:22;19.30;;;15.32;;
40044;SDS011;25735;48.122;11.422;2023-03-01T14:40:48;18.45;;;14.70;;
40044;SDS011;25735;48.122;11.422;2023-03-01T14:43:16;18.17;;;16.17;;
40044;SDS011;25735;48.122;11.422;2023-03-01T14:45:46;16.25;;;13.88;;
40044;SDS011;25735;48.122;11.422;2023-03-01T14:48:12;15.70;;;14.02;;
40044;SDS011;25735;48.122;11.422;2023-03-01T14:50:40;19.58;;;15.88;;
40044;SDS011;25735;48.122;11.422;2023-03-01T14:53:06;18.52;;;15.55;;
40044;SDS011;25735;48.122;11.422;2023-03-01T14:55:34;19.10;;;15.10;;
40044;SDS011;25735;48.122;11.422;2023-03-01T14:58:02;17.00;;;14.88;;
40044;SDS011;25735;48.122;11.422;2023-03-01T15:00:28;19.42;;;15.45;;
40044;SDS011;25735;48.122;11.422;2023-03-01T15:02:56;19.02;;;15.35;;
40044;SDS011;25735;48.122;11.422;2023-03-01T15:05:25;21.70;;;14.52;;
40044;SDS011;25735;48.122;11.422;2023-03-01T15:07:52;18.33;;;15.70;;
40044;SDS011;25735;48.122;11.422;2023-03-01T15:10:22;18.38;;;15.18;;
40044;SDS011;25735;48.122;11.422;2023-03-01T15:12:48;18.67;;;16.08;;
40044;SDS011;25735;48.122;11.422;2023-03-01T15:15:47;19.15;;;15.45;;
40044;SDS011;25735;48.122;11.422;2023-03-01T15:18:11;20.83;;;14.68;;
40044;SDS011;25735;48.122;11.422;2023-03-01T15:20:37;15.85;;;13.82;;
40044;SDS011;25735;48.122;11.422;2023-03-01T15:23:03;17.38;;;14.02;;
40044;SDS011;25735;48.122;11.422;2023-03-01T15:25:29;21.80;;;13.38;;
40044;SDS011;25735;48.122;11.422;2023-03-01T15:27:55;18.52;;;13.38;;
40044;SDS011;25735;48.122;11.422;2023-03-01T15:30:28;19.35;;;15.45;;
40044;SDS011;25735;48.122;11.422;2023-03-01T15:35:44;17.98;;;14.02;;